createdAt,value
2023-05-16T00:02:33.829Z,99601.19
2023-05-16T00:07:36.611Z,99601.66
2023-05-16T00:12:40.351Z,99602.59
2023-05-16T00:17:46.805Z,99606.91
2023-05-16T00:22:49.668Z,99605.41
2023-05-16T00:27:52.590Z,99613.44
2023-05-16T00:32:57.109Z,99619.28
2023-05-16T00:37:59.903Z,99632.59
2023-05-16T00:43:02.817Z,99635.19
2023-05-16T00:48:07.055Z,99633.75
2023-05-16T00:53:11.183Z,99627.97
2023-05-16T00:58:14.092Z,99635.50
2023-05-16T01:03:18.378Z,99628.25
2023-05-16T01:08:21.631Z,99636.81
2023-05-16T01:13:32.711Z,99649.50
2023-05-16T01:18:44.294Z,99652.09
2023-05-16T01:23:54.516Z,99653.06
2023-05-16T01:28:59.439Z,99660.09
2023-05-16T01:34:02.206Z,99661.38
2023-05-16T01:39:12.955Z,99659.97
2023-05-16T01:44:23.637Z,99671.94
2023-05-16T01:49:29.868Z,99673.09
2023-05-16T01:54:34.202Z,99680.75
2023-05-16T01:59:40.306Z,99684.47
2023-05-16T02:04:43.105Z,99694.56
2023-05-16T02:09:45.940Z,99709.41
2023-05-16T02:14:50.211Z,99704.97
2023-05-16T02:19:53.342Z,99700.56
2023-05-16T02:24:56.361Z,99713.41
2023-05-16T02:30:00.581Z,99704.69
2023-05-16T02:35:04.295Z,99714.97
2023-05-16T02:40:09.052Z,99726.91
2023-05-16T02:45:14.254Z,99729.47
2023-05-16T02:50:17.147Z,99732.06
2023-05-16T02:55:22.196Z,99753.00
2023-05-16T03:00:27.010Z,99771.22
2023-05-16T03:05:29.930Z,99752.56
2023-05-16T03:10:32.893Z,99763.81
2023-05-16T03:15:37.127Z,99771.75
2023-05-16T03:20:39.906Z,99767.75
2023-05-16T03:25:43.544Z,99779.13
2023-05-16T03:30:48.969Z,99781.69
2023-05-16T03:35:52.049Z,99788.72
2023-05-16T03:40:55.226Z,99787.00
2023-05-16T03:45:59.458Z,99810.78
2023-05-16T03:51:02.263Z,99818.31
2023-05-16T03:56:05.541Z,99821.16
2023-05-16T04:01:09.714Z,99828.53
2023-05-16T04:06:12.558Z,99844.03
2023-05-16T04:11:15.399Z,99854.13
2023-05-16T04:16:19.609Z,99852.53
2023-05-16T04:21:22.524Z,99859.94
2023-05-16T04:26:25.639Z,99863.75
2023-05-16T04:31:30.049Z,99877.41
2023-05-16T04:36:32.840Z,99878.56
2023-05-16T04:41:36.160Z,99895.03
2023-05-16T04:46:40.513Z,99904.13
2023-05-16T04:51:43.684Z,99915.94
2023-05-16T04:56:46.421Z,99908.06
2023-05-16T05:01:50.603Z,99919.88
2023-05-16T05:06:53.446Z,99924.56
2023-05-16T05:11:56.290Z,99923.81
2023-05-16T05:17:00.433Z,99927.38
2023-05-16T05:22:03.264Z,99940.03
2023-05-16T05:27:06.585Z,99937.19
2023-05-16T05:32:10.915Z,99946.06
2023-05-16T05:37:13.782Z,99954.44
2023-05-16T05:42:16.585Z,99958.63
2023-05-16T05:47:21.651Z,99947.34
2023-05-16T05:52:24.692Z,99957.16
2023-05-16T05:57:37.960Z,99962.16
2023-05-16T06:02:43.531Z,99959.84
2023-05-16T06:07:46.403Z,99959.56
2023-05-16T06:12:49.614Z,99960.28
2023-05-16T06:17:53.997Z,99970.13
2023-05-16T06:22:57.028Z,99980.81
2023-05-16T06:27:59.777Z,99988.78
2023-05-16T06:33:04.081Z,99980.53
2023-05-16T06:38:07.078Z,100000.06
2023-05-16T06:43:09.946Z,99999.19
2023-05-16T06:48:15.643Z,100007.31
2023-05-16T06:53:18.732Z,100008.16
2023-05-16T06:58:21.779Z,100017.97
2023-05-16T07:03:26.528Z,100028.72
2023-05-16T07:08:29.651Z,100038.75
2023-05-16T07:13:34.346Z,100041.34
2023-05-16T07:18:40.251Z,100031.41
2023-05-16T07:23:43.161Z,100042.22
2023-05-16T07:28:46.102Z,100042.22
2023-05-16T07:33:50.478Z,100036.69
2023-05-16T07:38:53.407Z,100034.00
2023-05-16T07:43:56.422Z,100023.91
2023-05-16T07:49:00.719Z,100033.72
2023-05-16T07:54:04.136Z,100032.75
2023-05-16T07:59:07.022Z,100030.06
2023-05-16T08:04:11.460Z,100032.63
2023-05-16T08:09:14.427Z,100028.06
2023-05-16T08:14:17.299Z,100022.41
2023-05-16T08:19:21.738Z,100022.28
2023-05-16T08:24:24.765Z,100015.75
2023-05-16T08:29:27.622Z,100016.09
2023-05-16T08:34:33.351Z,100007.38
2023-05-16T08:39:36.248Z,100005.13
2023-05-16T08:44:39.301Z,100016.66
2023-05-16T08:49:45.070Z,100026.75
2023-05-16T08:55:05.642Z,100029.06
2023-05-16T09:00:13.393Z,100030.91
2023-05-16T09:05:19.345Z,100036.19
2023-05-16T09:10:22.655Z,100033.22
2023-05-16T09:15:33.112Z,100048.59
2023-05-16T09:20:46.645Z,100061.41
2023-05-16T09:25:49.586Z,100068.66
2023-05-16T09:30:54.066Z,100088.53
2023-05-16T09:35:59.609Z,100090.28
2023-05-16T09:41:03.538Z,100086.31
2023-05-16T09:46:06.747Z,100090.84
2023-05-16T09:51:13.693Z,100104.94
2023-05-16T09:56:17.509Z,100092.34
2023-05-16T10:01:20.672Z,100092.25
2023-05-16T10:06:25.744Z,100099.56
2023-05-16T10:11:29.893Z,100113.97
2023-05-16T10:16:34.573Z,100117.19
2023-05-16T10:21:46.784Z,100116.25
2023-05-16T10:26:55.027Z,100127.84
2023-05-16T10:32:07.129Z,100119.66
2023-05-16T10:37:16.226Z,100129.50
2023-05-16T10:42:23.036Z,100131.22
2023-05-16T10:47:26.293Z,100118.94
2023-05-16T10:52:35.901Z,100121.41
2023-05-16T10:57:39.520Z,100120.56
2023-05-16T11:02:43.151Z,100121.28
2023-05-16T11:08:04.466Z,100120.78
2023-05-16T11:13:09.386Z,100114.28
2023-05-16T11:18:16.712Z,100115.88
2023-05-16T11:23:22.781Z,100129.53
2023-05-16T11:28:27.178Z,100138.72
2023-05-16T11:33:35.745Z,100145.09
2023-05-16T11:38:43.371Z,100146.94
2023-05-16T11:43:46.870Z,100157.03
2023-05-16T11:48:49.904Z,100154.69
2023-05-16T11:53:54.755Z,100140.06
2023-05-16T11:58:59.469Z,100140.56
2023-05-16T12:04:03.101Z,100140.31
2023-05-16T12:09:10.597Z,100133.56
2023-05-16T12:14:14.873Z,100136.00
2023-05-16T12:19:18.111Z,100141.91
2023-05-16T12:24:22.692Z,100137.63
2023-05-16T12:29:27.206Z,100124.34
2023-05-16T12:34:30.943Z,100124.72
2023-05-16T12:39:40.070Z,100123.38
2023-05-16T12:44:46.541Z,100123.84
2023-05-16T12:49:51.334Z,100138.97
2023-05-16T12:54:55.748Z,100137.72
2023-05-16T12:59:58.636Z,100142.53
2023-05-16T13:05:02.009Z,100142.75
2023-05-16T13:10:07.829Z,100138.81
2023-05-16T13:15:12.865Z,100133.41
2023-05-16T13:20:15.991Z,100133.94
2023-05-16T13:25:20.301Z,100144.97
2023-05-16T13:30:23.233Z,100155.25
2023-05-16T13:35:26.987Z,100160.53
2023-05-16T13:40:31.896Z,100151.31
2023-05-16T13:45:35.372Z,100163.22
2023-05-16T13:50:44.103Z,100165.28
2023-05-16T13:55:49.483Z,100162.22
2023-05-16T14:00:52.948Z,100163.41
2023-05-16T14:05:56.272Z,100154.91
2023-05-16T14:11:00.470Z,100164.03
2023-05-16T14:16:03.321Z,100158.09
2023-05-16T14:21:06.618Z,100157.25
2023-05-16T14:26:11.521Z,100163.59
2023-05-16T14:31:14.421Z,100155.94
2023-05-16T14:36:17.289Z,100159.53
2023-05-16T14:41:22.587Z,100165.38
2023-05-16T14:46:25.617Z,100166.25
2023-05-16T14:51:28.730Z,100155.69
2023-05-16T14:56:33.645Z,100156.19
2023-05-16T15:01:37.039Z,100165.66
2023-05-16T15:06:39.949Z,100169.41
2023-05-16T15:11:44.086Z,100179.13
2023-05-16T15:16:47.358Z,100177.88
2023-05-16T15:21:50.317Z,100170.00
2023-05-16T15:26:56.118Z,100170.28
2023-05-16T15:31:59.044Z,100170.72
2023-05-16T15:37:02.546Z,100164.53
2023-05-16T15:42:11.065Z,100160.13
2023-05-16T15:47:14.510Z,100155.88
2023-05-16T15:52:17.491Z,100153.53
2023-05-16T15:57:21.754Z,100149.56
2023-05-16T16:02:24.587Z,100160.25
2023-05-16T16:07:27.615Z,100167.66
2023-05-16T16:12:32.205Z,100167.41
2023-05-16T16:17:35.259Z,100156.06
2023-05-16T16:22:38.156Z,100156.50
2023-05-16T16:27:42.665Z,100160.06
2023-05-16T16:32:48.673Z,100159.06
2023-05-16T16:38:05.744Z,100153.81
2023-05-16T16:43:10.952Z,100157.06
2023-05-16T16:48:14.075Z,100159.63
2023-05-16T16:53:17.149Z,100167.75
2023-05-16T16:58:21.500Z,100161.19
2023-05-16T17:03:24.369Z,100167.34
2023-05-16T17:08:27.401Z,100156.81
2023-05-16T17:13:33.891Z,100158.41
2023-05-16T17:18:37.275Z,100173.41
2023-05-16T17:23:42.391Z,100173.44
2023-05-16T17:28:48.355Z,100183.59
2023-05-16T17:33:51.292Z,100194.63
2023-05-16T17:38:54.161Z,100208.38
2023-05-16T17:43:58.530Z,100209.72
2023-05-16T17:49:01.394Z,100216.69
2023-05-16T17:54:04.656Z,100217.44
2023-05-16T17:59:09.812Z,100216.34
2023-05-16T18:04:13.268Z,100208.94
2023-05-16T18:09:16.390Z,100210.25
2023-05-16T18:14:20.856Z,100209.41
2023-05-16T18:19:24.077Z,100224.81
2023-05-16T18:24:27.094Z,100238.38
2023-05-16T18:29:31.384Z,100242.09
2023-05-16T18:34:34.594Z,100248.38
2023-05-16T18:39:37.726Z,100263.50
2023-05-16T18:44:41.987Z,100280.50
2023-05-16T18:49:44.963Z,100276.66
2023-05-16T18:54:47.843Z,100283.81
2023-05-16T18:59:53.666Z,100292.66
2023-05-16T19:04:58.248Z,100306.91
2023-05-16T19:10:03.722Z,100303.38
2023-05-16T19:15:11.073Z,100311.53
2023-05-16T19:20:14.207Z,100323.22
2023-05-16T19:25:18.168Z,100334.94
2023-05-16T19:30:23.311Z,100337.38
2023-05-16T19:35:26.763Z,100347.97
2023-05-16T19:40:29.926Z,100343.13
2023-05-16T19:45:34.121Z,100358.22
2023-05-16T19:50:37.003Z,100360.97
2023-05-16T19:55:39.924Z,100363.44
2023-05-16T20:00:44.289Z,100381.31
2023-05-16T20:05:47.104Z,100377.59
2023-05-16T20:10:49.870Z,100381.19
2023-05-16T20:15:54.056Z,100372.06
2023-05-16T20:20:58.610Z,100376.59
2023-05-16T20:26:01.736Z,100369.78
2023-05-16T20:31:06.065Z,100370.91
2023-05-16T20:36:08.930Z,100380.22
2023-05-16T20:41:11.936Z,100382.28
2023-05-16T20:46:16.234Z,100382.44
2023-05-16T20:51:19.131Z,100386.25
2023-05-16T20:56:22.406Z,100384.38
2023-05-16T21:01:26.863Z,100390.31
2023-05-16T21:06:29.728Z,100397.16
2023-05-16T21:11:32.937Z,100394.41
2023-05-16T21:16:37.132Z,100402.94
2023-05-16T21:21:40.094Z,100410.00
2023-05-16T21:26:43.093Z,100417.81
2023-05-16T21:31:47.365Z,100415.91
2023-05-16T21:36:50.272Z,100419.97
2023-05-16T21:41:53.103Z,100422.44
2023-05-16T21:46:57.298Z,100415.69
2023-05-16T21:52:00.278Z,100423.63
2023-05-16T21:57:03.162Z,100420.59
2023-05-16T22:02:08.198Z,100428.09
2023-05-16T22:07:11.209Z,100419.63
2023-05-16T22:12:14.095Z,100435.28
2023-05-16T22:17:19.481Z,100431.94
2023-05-16T22:22:22.439Z,100425.19
2023-05-16T22:27:25.436Z,100427.81
2023-05-16T22:32:29.785Z,100442.22
2023-05-16T22:37:32.657Z,100440.34
2023-05-16T22:42:35.630Z,100442.16
2023-05-16T22:47:39.895Z,100446.53
2023-05-16T22:52:42.868Z,100448.59
2023-05-16T22:57:45.702Z,100457.22
2023-05-16T23:02:50.129Z,100465.97
2023-05-16T23:07:53.031Z,100460.25
2023-05-16T23:12:56.140Z,100464.59
2023-05-16T23:18:00.467Z,100472.56
2023-05-16T23:23:03.492Z,100464.72
2023-05-16T23:28:06.341Z,100463.25
2023-05-16T23:33:10.631Z,100462.06
2023-05-16T23:38:13.528Z,100460.75
2023-05-16T23:43:16.743Z,100474.06
2023-05-16T23:48:20.985Z,100478.50
2023-05-16T23:53:28.811Z,100490.13
2023-05-16T23:58:31.571Z,100496.00
